Terminal Aerodrome Forecast
Issued by NWS Sioux Falls, SD

Home | Current Version | Previous Version | Text Only | Print | Product List | Glossary On
Versions: 1 2 3 4 5 6 7 8 9 10 11 12 13 14 15 16 17 18
000
FTUS43 KFSD 301733
TAFFSD
TAF
KFSD 301733Z 3018/0118 31015G23KT 3SM -SN OVC015
     FM302200 30014KT P6SM VCSH OVC015
     FM010000 30012KT P6SM OVC015
     FM010500 31010KT P6SM OVC008=

USA.gov is the U.S. government's official web portal to all federal, state and local government web resources and services.